sensor_id;sensor_type;location;lat;lon;timestamp;pressure;altitude;pressure_sealevel;temperature;humidity
74936;BME280;63501;55.570;37.488;2023-07-29T00:00:35;97887.44;;;13.58;100.00
74936;BME280;63501;55.570;37.488;2023-07-29T00:03:07;97885.84;;;13.57;100.00
74936;BME280;63501;55.570;37.488;2023-07-29T00:05:39;97887.84;;;13.57;100.00
74936;BME280;63501;55.570;37.488;2023-07-29T00:08:07;97909.31;;;13.56;100.00
74936;BME280;63501;55.570;37.488;2023-07-29T00:10:38;97914.84;;;13.56;100.00
74936;BME280;63501;55.570;37.488;2023-07-29T00:13:06;97921.84;;;13.61;100.00
74936;BME280;63501;55.570;37.488;2023-07-29T00:15:34;97919.72;;;13.65;100.00
74936;BME280;63501;55.570;37.488;2023-07-29T00:18:05;97910.16;;;13.66;100.00
74936;BME280;63501;55.570;37.488;2023-07-29T00:20:33;97906.94;;;13.67;100.00
74936;BME280;63501;55.570;37.488;2023-07-29T00:23:00;97907.38;;;13.66;100.00
74936;BME280;63501;55.570;37.488;2023-07-29T00:25:31;97896.75;;;13.64;100.00
74936;BME280;63501;55.570;37.488;2023-07-29T00:28:00;97901.94;;;13.62;100.00
74936;BME280;63501;55.570;37.488;2023-07-29T00:30:30;97901.63;;;13.60;100.00
74936;BME280;63501;55.570;37.488;2023-07-29T00:32:58;97886.63;;;13.58;100.00
74936;BME280;63501;55.570;37.488;2023-07-29T00:35:29;97881.41;;;13.60;100.00
74936;BME280;63501;55.570;37.488;2023-07-29T00:37:56;97872.88;;;13.54;100.00
74936;BME280;63501;55.570;37.488;2023-07-29T00:40:24;97859.13;;;13.50;100.00
74936;BME280;63501;55.570;37.488;2023-07-29T00:42:55;97869.56;;;13.46;100.00
74936;BME280;63501;55.570;37.488;2023-07-29T00:45:27;97858.72;;;13.39;100.00
74936;BME280;63501;55.570;37.488;2023-07-29T00:47:56;97856.50;;;13.34;100.00
74936;BME280;63501;55.570;37.488;2023-07-29T00:50:24;97859.16;;;13.38;100.00
74936;BME280;63501;55.570;37.488;2023-07-29T00:52:53;97869.50;;;13.37;100.00
74936;BME280;63501;55.570;37.488;2023-07-29T00:55:24;97864.25;;;13.39;100.00
74936;BME280;63501;55.570;37.488;2023-07-29T00:57:52;97865.38;;;13.42;100.00
74936;BME280;63501;55.570;37.488;2023-07-29T01:00:21;97868.94;;;13.42;100.00
74936;BME280;63501;55.570;37.488;2023-07-29T01:02:52;97869.81;;;13.39;100.00
74936;BME280;63501;55.570;37.488;2023-07-29T01:05:21;97862.72;;;13.38;100.00
74936;BME280;63501;55.570;37.488;2023-07-29T01:07:54;97866.72;;;13.37;100.00
74936;BME280;63501;55.570;37.488;2023-07-29T01:10:35;97852.84;;;13.37;100.00
74936;BME280;63501;55.570;37.488;2023-07-29T01:13:13;97841.53;;;13.32;100.00
74936;BME280;63501;55.570;37.488;2023-07-29T01:15:51;97836.09;;;13.28;100.00
74936;BME280;63501;55.570;37.488;2023-07-29T01:18:27;97843.31;;;13.26;100.00
74936;BME280;63501;55.570;37.488;2023-07-29T01:20:59;97844.66;;;13.21;100.00
74936;BME280;63501;55.570;37.488;2023-07-29T01:23:31;97838.09;;;13.15;100.00
74936;BME280;63501;55.570;37.488;2023-07-29T01:26:03;97839.75;;;13.12;100.00
74936;BME280;63501;55.570;37.488;2023-07-29T01:28:31;97837.75;;;13.13;100.00
74936;BME280;63501;55.570;37.488;2023-07-29T01:31:03;97847.31;;;13.12;100.00
74936;BME280;63501;55.570;37.488;2023-07-29T01:33:39;97844.22;;;13.10;100.00
74936;BME280;63501;55.570;37.488;2023-07-29T01:36:13;97852.44;;;13.13;100.00
74936;BME280;63501;55.570;37.488;2023-07-29T01:38:44;97851.63;;;13.13;100.00
74936;BME280;63501;55.570;37.488;2023-07-29T01:41:13;97837.44;;;13.11;100.00
74936;BME280;63501;55.570;37.488;2023-07-29T01:43:43;97840.31;;;13.07;100.00
74936;BME280;63501;55.570;37.488;2023-07-29T01:46:12;97849.44;;;13.08;100.00
74936;BME280;63501;55.570;37.488;2023-07-29T01:48:40;97837.53;;;13.07;100.00
74936;BME280;63501;55.570;37.488;2023-07-29T01:51:09;97840.78;;;13.06;100.00
74936;BME280;63501;55.570;37.488;2023-07-29T01:53:36;97836.78;;;13.07;100.00
74936;BME280;63501;55.570;37.488;2023-07-29T01:56:06;97840.31;;;13.07;100.00
74936;BME280;63501;55.570;37.488;2023-07-29T01:58:36;97849.75;;;13.10;100.00
74936;BME280;63501;55.570;37.488;2023-07-29T02:01:04;97859.19;;;13.12;100.00
74936;BME280;63501;55.570;37.488;2023-07-29T02:03:31;97853.22;;;13.14;100.00
74936;BME280;63501;55.570;37.488;2023-07-29T02:05:59;97870.94;;;13.16;100.00
74936;BME280;63501;55.570;37.488;2023-07-29T02:08:27;97867.28;;;13.19;100.00
74936;BME280;63501;55.570;37.488;2023-07-29T02:10:54;97874.28;;;13.24;100.00
74936;BME280;63501;55.570;37.488;2023-07-29T02:13:23;97881.84;;;13.23;100.00
74936;BME280;63501;55.570;37.488;2023-07-29T02:15:51;97890.06;;;13.27;100.00
74936;BME280;63501;55.570;37.488;2023-07-29T02:18:19;97893.16;;;13.29;100.00
74936;BME280;63501;55.570;37.488;2023-07-29T02:20:48;97896.28;;;13.31;100.00
74936;BME280;63501;55.570;37.488;2023-07-29T02:23:17;97904.91;;;13.33;100.00
74936;BME280;63501;55.570;37.488;2023-07-29T02:25:47;97901.25;;;13.36;100.00
74936;BME280;63501;55.570;37.488;2023-07-29T02:28:18;97914.56;;;13.41;100.00
74936;BME280;63501;55.570;37.488;2023-07-29T02:30:46;97906.25;;;13.41;100.00
74936;BME280;63501;55.570;37.488;2023-07-29T02:33:17;97904.66;;;13.40;100.00
74936;BME280;63501;55.570;37.488;2023-07-29T02:35:45;97894.03;;;13.39;100.00
74936;BME280;63501;55.570;37.488;2023-07-29T02:38:16;97885.81;;;13.35;100.00
74936;BME280;63501;55.570;37.488;2023-07-29T02:40:51;97882.72;;;13.33;100.00
74936;BME280;63501;55.570;37.488;2023-07-29T02:43:21;97874.84;;;13.32;100.00
74936;BME280;63501;55.570;37.488;2023-07-29T02:45:52;97871.72;;;13.30;100.00
74936;BME280;63501;55.570;37.488;2023-07-29T02:48:20;97858.63;;;13.30;100.00
74936;BME280;63501;55.570;37.488;2023-07-29T02:50:47;97849.97;;;13.28;100.00
74936;BME280;63501;55.570;37.488;2023-07-29T02:53:15;97860.28;;;13.28;100.00
74936;BME280;63501;55.570;37.488;2023-07-29T02:55:42;97863.38;;;13.30;100.00
74936;BME280;63501;55.570;37.488;2023-07-29T02:58:10;97856.28;;;13.29;100.00
74936;BME280;63501;55.570;37.488;2023-07-29T03:00:39;97852.44;;;13.26;100.00
74936;BME280;63501;55.570;37.488;2023-07-29T03:03:09;97844.09;;;13.26;100.00
74936;BME280;63501;55.570;37.488;2023-07-29T03:05:37;97832.34;;;13.22;100.00
74936;BME280;63501;55.570;37.488;2023-07-29T03:08:06;97837.00;;;13.25;100.00
74936;BME280;63501;55.570;37.488;2023-07-29T03:11:04;97823.56;;;13.23;100.00
74936;BME280;63501;55.570;37.488;2023-07-29T03:13:58;97835.09;;;13.22;100.00
74936;BME280;63501;55.570;37.488;2023-07-29T03:16:43;97824.00;;;13.22;100.00
74936;BME280;63501;55.570;37.488;2023-07-29T03:19:22;97820.88;;;13.20;100.00
74936;BME280;63501;55.570;37.488;2023-07-29T03:21:53;97823.25;;;13.21;100.00
74936;BME280;63501;55.570;37.488;2023-07-29T03:24:25;97822.53;;;13.17;100.00
74936;BME280;63501;55.570;37.488;2023-07-29T03:27:01;97811.13;;;13.15;100.00
74936;BME280;63501;55.570;37.488;2023-07-29T03:29:31;97812.00;;;13.12;100.00
74936;BME280;63501;55.570;37.488;2023-07-29T03:32:06;97816.78;;;13.12;100.00
74936;BME280;63501;55.570;37.488;2023-07-29T03:34:41;97821.78;;;13.17;100.00
74936;BME280;63501;55.570;37.488;2023-07-29T03:37:18;97816.56;;;13.19;100.00
74936;BME280;63501;55.570;37.488;2023-07-29T03:39:50;97814.22;;;13.17;100.00
74936;BME280;63501;55.570;37.488;2023-07-29T03:42:19;97799.81;;;13.22;100.00
74936;BME280;63501;55.570;37.488;2023-07-29T03:45:02;97792.44;;;13.29;100.00
74936;BME280;63501;55.570;37.488;2023-07-29T03:47:33;97786.91;;;13.29;100.00
74936;BME280;63501;55.570;37.488;2023-07-29T03:50:10;97786.78;;;13.32;100.00
74936;BME280;63501;55.570;37.488;2023-07-29T03:52:45;97787.44;;;13.36;100.00
74936;BME280;63501;55.570;37.488;2023-07-29T03:55:13;97782.66;;;13.37;100.00
74936;BME280;63501;55.570;37.488;2023-07-29T03:57:51;97797.31;;;13.37;100.00
74936;BME280;63501;55.570;37.488;2023-07-29T04:00:29;97795.19;;;13.41;100.00
74936;BME280;63501;55.570;37.488;2023-07-29T04:03:02;97793.00;;;13.36;100.00
74936;BME280;63501;55.570;37.488;2023-07-29T04:06:12;97786.41;;;13.43;100.00
74936;BME280;63501;55.570;37.488;2023-07-29T04:08:59;97782.53;;;13.40;100.00
74936;BME280;63501;55.570;37.488;2023-07-29T04:11:50;97781.63;;;13.43;100.00
74936;BME280;63501;55.570;37.488;2023-07-29T04:14:39;97775.81;;;13.50;100.00
74936;BME280;63501;55.570;37.488;2023-07-29T04:17:08;97768.72;;;13.49;100.00
74936;BME280;63501;55.570;37.488;2023-07-29T04:20:04;97775.25;;;13.56;100.00
74936;BME280;63501;55.570;37.488;2023-07-29T04:22:59;97770.81;;;13.58;100.00
74936;BME280;63501;55.570;37.488;2023-07-29T04:26:00;97786.75;;;13.67;100.00
74936;BME280;63501;55.570;37.488;2023-07-29T04:28:31;97794.19;;;13.70;100.00
74936;BME280;63501;55.570;37.488;2023-07-29T04:31:02;97794.19;;;13.70;100.00
74936;BME280;63501;55.570;37.488;2023-07-29T04:33:58;97786.44;;;13.65;100.00
74936;BME280;63501;55.570;37.488;2023-07-29T04:36:38;97791.72;;;13.72;100.00
74936;BME280;63501;55.570;37.488;2023-07-29T04:39:24;97797.00;;;13.79;100.00
74936;BME280;63501;55.570;37.488;2023-07-29T04:41:59;97801.19;;;13.84;100.00
74936;BME280;63501;55.570;37.488;2023-07-29T04:44:41;97803.78;;;13.78;100.00
74936;BME280;63501;55.570;37.488;2023-07-29T04:47:24;97790.66;;;13.79;100.00
74936;BME280;63501;55.570;37.488;2023-07-29T04:50:02;97789.59;;;13.76;100.00
74936;BME280;63501;55.570;37.488;2023-07-29T04:52:34;97792.78;;;13.74;100.00
74936;BME280;63501;55.570;37.488;2023-07-29T04:55:36;97784.16;;;13.72;100.00
74936;BME280;63501;55.570;37.488;2023-07-29T05:01:24;97784.94;;;13.73;100.00
74936;BME280;63501;55.570;37.488;2023-07-29T05:04:17;97785.13;;;13.79;100.00
74936;BME280;63501;55.570;37.488;2023-07-29T05:06:59;97771.75;;;13.86;100.00
74936;BME280;63501;55.570;37.488;2023-07-29T05:09:47;97772.53;;;13.87;100.00
74936;BME280;63501;55.570;37.488;2023-07-29T05:12:58;97761.84;;;13.85;100.00
74936;BME280;63501;55.570;37.488;2023-07-29T05:15:43;97767.78;;;13.96;100.00
74936;BME280;63501;55.570;37.488;2023-07-29T05:19:02;97763.16;;;14.02;100.00
74936;BME280;63501;55.570;37.488;2023-07-29T05:22:05;97755.53;;;14.16;100.00
74936;BME280;63501;55.570;37.488;2023-07-29T05:24:57;97749.38;;;14.21;100.00
74936;BME280;63501;55.570;37.488;2023-07-29T05:33:44;97754.31;;;14.17;100.00
74936;BME280;63501;55.570;37.488;2023-07-29T05:36:11;97751.69;;;14.22;100.00
74936;BME280;63501;55.570;37.488;2023-07-29T05:38:39;97758.03;;;14.23;100.00
74936;BME280;63501;55.570;37.488;2023-07-29T05:41:06;97756.03;;;14.23;100.00
74936;BME280;63501;55.570;37.488;2023-07-29T05:43:33;97756.06;;;14.33;100.00
74936;BME280;63501;55.570;37.488;2023-07-29T05:46:00;97763.34;;;14.39;100.00
74936;BME280;63501;55.570;37.488;2023-07-29T05:48:27;97764.00;;;14.43;100.00
74936;BME280;63501;55.570;37.488;2023-07-29T05:50:56;97766.00;;;14.43;100.00
74936;BME280;63501;55.570;37.488;2023-07-29T05:53:23;97773.22;;;14.40;100.00
74936;BME280;63501;55.570;37.488;2023-07-29T05:55:50;97767.84;;;14.37;100.00
74936;BME280;63501;55.570;37.488;2023-07-29T05:58:17;97776.59;;;14.35;100.00
74936;BME280;63501;55.570;37.488;2023-07-29T06:00:45;97778.50;;;14.38;100.00
74936;BME280;63501;55.570;37.488;2023-07-29T06:03:12;97782.81;;;14.39;100.00
74936;BME280;63501;55.570;37.488;2023-07-29T06:05:39;97777.06;;;14.34;100.00
74936;BME280;63501;55.570;37.488;2023-07-29T06:08:08;97783.09;;;14.32;100.00
74936;BME280;63501;55.570;37.488;2023-07-29T06:10:35;97782.94;;;14.36;100.00
74936;BME280;63501;55.570;37.488;2023-07-29T06:13:02;97788.66;;;14.32;100.00
74936;BME280;63501;55.570;37.488;2023-07-29T06:15:29;97782.91;;;14.26;100.00
74936;BME280;63501;55.570;37.488;2023-07-29T06:17:57;97795.72;;;14.24;100.00
74936;BME280;63501;55.570;37.488;2023-07-29T06:20:24;97802.78;;;14.16;100.00
74936;BME280;63501;55.570;37.488;2023-07-29T06:22:51;97809.41;;;14.09;100.00
74936;BME280;63501;55.570;37.488;2023-07-29T06:25:19;97818.16;;;14.08;100.00
74936;BME280;63501;55.570;37.488;2023-07-29T06:27:48;97816.63;;;14.07;100.00
74936;BME280;63501;55.570;37.488;2023-07-29T06:30:15;97830.66;;;14.03;100.00
74936;BME280;63501;55.570;37.488;2023-07-29T06:32:42;97830.66;;;14.03;100.00
74936;BME280;63501;55.570;37.488;2023-07-29T06:35:09;97828.47;;;13.98;100.00
74936;BME280;63501;55.570;37.488;2023-07-29T06:37:36;97828.28;;;13.92;100.00
74936;BME280;63501;55.570;37.488;2023-07-29T06:40:04;97836.16;;;13.94;100.00
74936;BME280;63501;55.570;37.488;2023-07-29T06:42:33;97834.91;;;13.95;100.00
74936;BME280;63501;55.570;37.488;2023-07-29T06:45:00;97836.47;;;13.96;100.00
74936;BME280;63501;55.570;37.488;2023-07-29T06:47:30;97835.88;;;14.01;100.00
74936;BME280;63501;55.570;37.488;2023-07-29T06:49:57;97840.53;;;14.04;100.00
74936;BME280;63501;55.570;37.488;2023-07-29T06:52:24;97835.75;;;14.05;100.00
74936;BME280;63501;55.570;37.488;2023-07-29T06:54:51;97839.44;;;14.01;100.00
74936;BME280;63501;55.570;37.488;2023-07-29T06:57:18;97830.59;;;13.94;100.00
74936;BME280;63501;55.570;37.488;2023-07-29T06:59:47;97831.19;;;13.89;100.00
74936;BME280;63501;55.570;37.488;2023-07-29T07:02:14;97820.53;;;13.87;100.00
74936;BME280;63501;55.570;37.488;2023-07-29T07:04:41;97830.09;;;13.86;100.00
74936;BME280;63501;55.570;37.488;2023-07-29T07:07:08;97836.09;;;13.85;100.00
74936;BME280;63501;55.570;37.488;2023-07-29T07:09:35;97837.19;;;13.87;100.00
74936;BME280;63501;55.570;37.488;2023-07-29T07:12:03;97841.84;;;13.90;100.00
74936;BME280;63501;55.570;37.488;2023-07-29T07:14:30;97841.72;;;13.94;100.00
74936;BME280;63501;55.570;37.488;2023-07-29T07:16:58;97844.69;;;13.99;100.00
74936;BME280;63501;55.570;37.488;2023-07-29T07:19:26;97833.63;;;14.09;100.00
74936;BME280;63501;55.570;37.488;2023-07-29T07:21:53;97837.03;;;14.13;100.00
74936;BME280;63501;55.570;37.488;2023-07-29T07:24:20;97837.50;;;14.11;100.00
74936;BME280;63501;55.570;37.488;2023-07-29T07:26:47;97837.03;;;14.13;100.00
74936;BME280;63501;55.570;37.488;2023-07-29T07:29:14;97834.13;;;14.16;100.00
74936;BME280;63501;55.570;37.488;2023-07-29T07:31:49;97836.78;;;14.20;100.00
74936;BME280;63501;55.570;37.488;2023-07-29T07:34:18;97830.44;;;14.19;100.00
74936;BME280;63501;55.570;37.488;2023-07-29T07:36:46;97831.72;;;14.27;100.00
74936;BME280;63501;55.570;37.488;2023-07-29T07:39:13;97827.44;;;14.36;100.00
74936;BME280;63501;55.570;37.488;2023-07-29T07:41:41;97827.69;;;14.50;100.00
74936;BME280;63501;55.570;37.488;2023-07-29T07:44:08;97835.50;;;14.74;100.00
74936;BME280;63501;55.570;37.488;2023-07-29T07:46:36;97833.81;;;14.76;100.00
74936;BME280;63501;55.570;37.488;2023-07-29T07:49:03;97835.47;;;14.65;100.00
74936;BME280;63501;55.570;37.488;2023-07-29T07:51:32;97826.03;;;14.62;100.00
74936;BME280;63501;55.570;37.488;2023-07-29T07:53:59;97833.00;;;14.67;100.00
74936;BME280;63501;55.570;37.488;2023-07-29T07:56:27;97836.13;;;14.78;100.00
74936;BME280;63501;55.570;37.488;2023-07-29T07:58:54;97842.34;;;14.82;100.00
74936;BME280;63501;55.570;37.488;2023-07-29T08:01:21;97830.09;;;14.79;100.00
74936;BME280;63501;55.570;37.488;2023-07-29T08:03:48;97831.97;;;14.82;100.00
74936;BME280;63501;55.570;37.488;2023-07-29T08:06:15;97833.41;;;14.96;100.00
74936;BME280;63501;55.570;37.488;2023-07-29T08:08:44;97839.91;;;15.02;100.00
74936;BME280;63501;55.570;37.488;2023-07-29T08:11:11;97834.34;;;15.02;100.00
74936;BME280;63501;55.570;37.488;2023-07-29T08:13:38;97830.91;;;14.89;100.00
74936;BME280;63501;55.570;37.488;2023-07-29T08:16:05;97841.56;;;14.81;100.00
74936;BME280;63501;55.570;37.488;2023-07-29T08:18:32;97838.31;;;14.83;100.00
74936;BME280;63501;55.570;37.488;2023-07-29T08:21:00;97844.53;;;14.87;100.00
74936;BME280;63501;55.570;37.488;2023-07-29T08:23:29;97848.84;;;14.88;100.00
74936;BME280;63501;55.570;37.488;2023-07-29T08:26:00;97853.13;;;14.80;100.00
74936;BME280;63501;55.570;37.488;2023-07-29T08:28:29;97851.75;;;14.85;100.00
74936;BME280;63501;55.570;37.488;2023-07-29T08:30:56;97853.66;;;14.88;100.00
74936;BME280;63501;55.570;37.488;2023-07-29T08:33:23;97845.00;;;14.95;100.00
74936;BME280;63501;55.570;37.488;2023-07-29T08:35:50;97838.78;;;14.91;100.00
74936;BME280;63501;55.570;37.488;2023-07-29T08:38:18;97842.53;;;14.97;100.00
74936;BME280;63501;55.570;37.488;2023-07-29T08:40:49;97844.53;;;14.87;100.00
74936;BME280;63501;55.570;37.488;2023-07-29T08:43:19;97844.19;;;14.76;100.00
74936;BME280;63501;55.570;37.488;2023-07-29T08:45:47;97846.63;;;14.74;100.00
74936;BME280;63501;55.570;37.488;2023-07-29T08:48:19;97840.63;;;14.85;100.00
74936;BME280;63501;55.570;37.488;2023-07-29T08:50:52;97834.34;;;14.93;100.00
74936;BME280;63501;55.570;37.488;2023-07-29T08:53:19;97834.63;;;14.95;100.00
74936;BME280;63501;55.570;37.488;2023-07-29T08:55:47;97832.16;;;14.88;100.00
74936;BME280;63501;55.570;37.488;2023-07-29T08:58:15;97834.59;;;14.77;100.00
74936;BME280;63501;55.570;37.488;2023-07-29T09:00:45;97840.25;;;14.64;100.00
74936;BME280;63501;55.570;37.488;2023-07-29T09:03:13;97835.63;;;14.61;100.00
74936;BME280;63501;55.570;37.488;2023-07-29T09:05:40;97841.31;;;14.58;100.00
74936;BME280;63501;55.570;37.488;2023-07-29T09:08:07;97836.06;;;14.60;100.00
74936;BME280;63501;55.570;37.488;2023-07-29T09:10:35;97836.56;;;14.67;100.00
74936;BME280;63501;55.570;37.488;2023-07-29T09:13:03;97842.94;;;14.77;100.00
74936;BME280;63501;55.570;37.488;2023-07-29T09:15:30;97843.72;;;14.87;100.00
74936;BME280;63501;55.570;37.488;2023-07-29T09:18:00;97850.69;;;14.82;100.00
74936;BME280;63501;55.570;37.488;2023-07-29T09:20:35;97845.09;;;14.73;100.00
74936;BME280;63501;55.570;37.488;2023-07-29T09:23:02;97843.81;;;14.65;100.00
74936;BME280;63501;55.570;37.488;2023-07-29T09:25:30;97839.97;;;14.71;100.00
74936;BME280;63501;55.570;37.488;2023-07-29T09:27:59;97843.72;;;14.87;100.00
74936;BME280;63501;55.570;37.488;2023-07-29T09:30:27;97851.38;;;15.04;100.00
74936;BME280;63501;55.570;37.488;2023-07-29T09:32:55;97856.97;;;15.23;100.00
74936;BME280;63501;55.570;37.488;2023-07-29T09:35:24;97848.97;;;15.43;100.00
74936;BME280;63501;55.570;37.488;2023-07-29T09:37:52;97858.84;;;15.53;100.00
74936;BME280;63501;55.570;37.488;2023-07-29T09:40:19;97862.88;;;15.52;100.00
74936;BME280;63501;55.570;37.488;2023-07-29T09:42:50;97861.31;;;15.42;100.00
74936;BME280;63501;55.570;37.488;2023-07-29T09:45:21;97864.69;;;15.19;100.00
74936;BME280;63501;55.570;37.488;2023-07-29T09:47:49;97868.06;;;15.04;100.00
74936;BME280;63501;55.570;37.488;2023-07-29T09:50:16;97860.34;;;15.08;100.00
74936;BME280;63501;55.570;37.488;2023-07-29T09:52:45;97866.22;;;15.11;100.00
74936;BME280;63501;55.570;37.488;2023-07-29T09:55:17;97857.38;;;15.03;100.00
74936;BME280;63501;55.570;37.488;2023-07-29T09:57:46;97870.50;;;14.93;100.00
74936;BME280;63501;55.570;37.488;2023-07-29T10:00:13;97866.88;;;14.74;100.00
74936;BME280;63501;55.570;37.488;2023-07-29T10:02:40;97868.25;;;14.70;100.00
74936;BME280;63501;55.570;37.488;2023-07-29T10:05:08;97865.38;;;14.82;100.00
74936;BME280;63501;55.570;37.488;2023-07-29T10:07:37;97865.09;;;14.90;100.00
74936;BME280;63501;55.570;37.488;2023-07-29T10:10:09;97862.91;;;14.85;100.00
74936;BME280;63501;55.570;37.488;2023-07-29T10:12:36;97863.66;;;14.85;100.00
74936;BME280;63501;55.570;37.488;2023-07-29T10:15:05;97864.91;;;14.84;100.00
74936;BME280;63501;55.570;37.488;2023-07-29T10:17:35;97867.38;;;14.82;100.00
74936;BME280;63501;55.570;37.488;2023-07-29T10:20:04;97864.44;;;14.86;100.00
74936;BME280;63501;55.570;37.488;2023-07-29T10:22:36;97868.94;;;14.92;100.00
74936;BME280;63501;55.570;37.488;2023-07-29T10:25:07;97868.03;;;14.95;100.00
74936;BME280;63501;55.570;37.488;2023-07-29T10:27:43;97863.72;;;15.03;100.00
74936;BME280;63501;55.570;37.488;2023-07-29T10:30:13;97869.91;;;15.07;100.00
74936;BME280;63501;55.570;37.488;2023-07-29T10:32:42;97867.47;;;15.10;100.00
74936;BME280;63501;55.570;37.488;2023-07-29T10:35:11;97866.06;;;15.05;100.00
74936;BME280;63501;55.570;37.488;2023-07-29T10:37:39;97859.88;;;15.19;100.00
74936;BME280;63501;55.570;37.488;2023-07-29T10:40:09;97855.13;;;15.29;100.00
74936;BME280;63501;55.570;37.488;2023-07-29T10:42:37;97857.75;;;15.23;100.00
74936;BME280;63501;55.570;37.488;2023-07-29T10:45:23;97859.44;;;15.30;100.00
74936;BME280;63501;55.570;37.488;2023-07-29T10:47:50;97855.59;;;15.46;100.00
74936;BME280;63501;55.570;37.488;2023-07-29T10:50:18;97859.78;;;15.41;100.00
74936;BME280;63501;55.570;37.488;2023-07-29T10:52:49;97857.59;;;15.36;100.00
74936;BME280;63501;55.570;37.488;2023-07-29T10:55:26;97857.44;;;15.30;100.00
74936;BME280;63501;55.570;37.488;2023-07-29T10:58:08;97863.81;;;15.40;100.00
74936;BME280;63501;55.570;37.488;2023-07-29T11:00:35;97873.13;;;15.65;100.00
74936;BME280;63501;55.570;37.488;2023-07-29T11:03:05;97870.03;;;15.81;100.00
74936;BME280;63501;55.570;37.488;2023-07-29T11:05:43;97876.84;;;15.98;100.00
74936;BME280;63501;55.570;37.488;2023-07-29T11:08:26;97871.56;;;16.19;100.00
74936;BME280;63501;55.570;37.488;2023-07-29T11:11:06;97865.97;;;16.28;100.00
74936;BME280;63501;55.570;37.488;2023-07-29T11:13:35;97863.63;;;16.35;100.00
74936;BME280;63501;55.570;37.488;2023-07-29T11:16:03;97861.75;;;16.42;100.00
74936;BME280;63501;55.570;37.488;2023-07-29T11:18:31;97855.09;;;16.39;100.00
74936;BME280;63501;55.570;37.488;2023-07-29T11:20:59;97856.03;;;16.36;100.00
74936;BME280;63501;55.570;37.488;2023-07-29T11:23:29;97867.66;;;16.34;100.00
74936;BME280;63501;55.570;37.488;2023-07-29T11:25:57;97865.66;;;16.26;100.00
74936;BME280;63501;55.570;37.488;2023-07-29T11:28:26;97868.63;;;16.13;100.00
74936;BME280;63501;55.570;37.488;2023-07-29T11:30:54;97879.16;;;16.09;100.00
74936;BME280;63501;55.570;37.488;2023-07-29T11:33:24;97868.63;;;16.13;100.00
74936;BME280;63501;55.570;37.488;2023-07-29T11:35:52;97885.06;;;16.11;100.00
74936;BME280;63501;55.570;37.488;2023-07-29T11:38:20;97892.63;;;16.10;100.00
74936;BME280;63501;55.570;37.488;2023-07-29T11:40:55;97885.19;;;16.07;100.00
74936;BME280;63501;55.570;37.488;2023-07-29T11:43:22;97898.03;;;16.05;100.00
74936;BME280;63501;55.570;37.488;2023-07-29T11:45:52;97898.81;;;15.87;100.00
74936;BME280;63501;55.570;37.488;2023-07-29T11:48:26;97899.16;;;15.80;100.00
74936;BME280;63501;55.570;37.488;2023-07-29T11:50:53;97899.47;;;15.73;100.00
74936;BME280;63501;55.570;37.488;2023-07-29T11:53:21;97899.59;;;15.69;100.00
74936;BME280;63501;55.570;37.488;2023-07-29T11:55:50;97900.53;;;15.66;100.00
74936;BME280;63501;55.570;37.488;2023-07-29T11:58:18;97897.91;;;15.63;100.00
74936;BME280;63501;55.570;37.488;2023-07-29T12:00:47;97897.75;;;15.66;100.00
74936;BME280;63501;55.570;37.488;2023-07-29T12:03:16;97894.78;;;15.60;100.00
74936;BME280;63501;55.570;37.488;2023-07-29T12:05:44;97897.25;;;15.58;100.00
74936;BME280;63501;55.570;37.488;2023-07-29T12:08:12;97894.94;;;15.57;100.00
74936;BME280;63501;55.570;37.488;2023-07-29T12:10:39;97894.44;;;15.58;100.00
74936;BME280;63501;55.570;37.488;2023-07-29T12:13:08;97895.69;;;15.57;100.00
74936;BME280;63501;55.570;37.488;2023-07-29T12:15:38;97898.19;;;15.65;100.00
74936;BME280;63501;55.570;37.488;2023-07-29T12:18:06;97890.63;;;15.65;100.00
74936;BME280;63501;55.570;37.488;2023-07-29T12:20:35;97889.97;;;15.61;100.00
74936;BME280;63501;55.570;37.488;2023-07-29T12:23:02;97887.94;;;15.52;100.00
74936;BME280;63501;55.570;37.488;2023-07-29T12:25:31;97897.25;;;15.49;100.00
74936;BME280;63501;55.570;37.488;2023-07-29T12:28:02;97886.88;;;15.50;100.00
74936;BME280;63501;55.570;37.488;2023-07-29T12:30:30;97893.38;;;15.56;100.00
74936;BME280;63501;55.570;37.488;2023-07-29T12:32:57;97886.09;;;15.58;100.00
74936;BME280;63501;55.570;37.488;2023-07-29T12:35:35;97887.66;;;15.50;100.00
74936;BME280;63501;55.570;37.488;2023-07-29T12:38:03;97883.31;;;15.49;100.00
74936;BME280;63501;55.570;37.488;2023-07-29T12:40:30;97887.66;;;15.50;100.00
74936;BME280;63501;55.570;37.488;2023-07-29T12:42:57;97875.72;;;15.59;100.00
74936;BME280;63501;55.570;37.488;2023-07-29T12:45:24;97881.34;;;15.68;100.00
74936;BME280;63501;55.570;37.488;2023-07-29T12:47:54;97885.53;;;15.73;100.00
74936;BME280;63501;55.570;37.488;2023-07-29T12:50:21;97886.31;;;15.73;100.00
74936;BME280;63501;55.570;37.488;2023-07-29T12:52:50;97887.69;;;15.78;100.00
74936;BME280;63501;55.570;37.488;2023-07-29T12:55:17;97891.41;;;15.84;100.00
74936;BME280;63501;55.570;37.488;2023-07-29T12:57:44;97894.47;;;16.04;100.00
74936;BME280;63501;55.570;37.488;2023-07-29T13:00:12;97894.16;;;16.30;100.00
74936;BME280;63501;55.570;37.488;2023-07-29T13:02:39;97895.22;;;16.42;100.00
74936;BME280;63501;55.570;37.488;2023-07-29T13:05:09;97900.59;;;16.54;100.00
74936;BME280;63501;55.570;37.488;2023-07-29T13:07:38;97892.50;;;16.84;100.00
74936;BME280;63501;55.570;37.488;2023-07-29T13:10:07;97886.84;;;17.26;100.00